Other Surface Observations
Issued by NWS Great Falls, MT

Home | Current Version | Previous Version | Text Only | Print | Product List | Glossary On
Versions: 1 2 3 4 5 6 7 8 9 10 11 12 13 14 15 16 17 18 19 20 21 22 23 24 25 26 27 28 29 30 31 32 33 34 35 36 37 38 39 40 41 42 43 44 45 46 47 48 49 50
061
SXUS55 KTFX 201021
OSOTFX

AREA AWOS OBSERVATIONS
NATIONAL WEATHER SERVICE GREAT FALLS MT
0421 AM MDT Fri Apr 20 2018

METAR KCII 201015Z AUTO 24005KT 10SM 01/M02 A3010 RMK A01
METAR K6S0 201015Z AUTO 22007KT 10SM CLR 02/M03 A3010 RMK A01
METAR K6S8 201020Z AUTO 34006KT 10SM 04/M00 A3007 RMK A01
METAR K7S6 201015Z AUTO 00000KT 10SM M02/M04 A3009 RMK A01
METAR K7S0 201020Z AUTO 00000KT 10SM M00/M02 A3015 RMK A01



USA.gov is the U.S. government's official web portal to all federal, state and local government web resources and services.